KGMU

Greenville Downtown Airport

Greenville, South Carolina, USA
METAR KGMU 221753Z VRB04KT 10SM CLR 04/M15 A3059 RMK AO2 SLP366 T00441150 10044 21044 58021
Observed Flight Rules
Jan-22 @ 17:53 UTC (an hour ago) Visual Flight Rules
Wind Visibility Clouds
Variable at 4 knots 10 miles
  • Clear skies
Temperatures Readings
Current 4°C / 39°F
Dewpoint -15°C / 5°F
Humidity 24%
Altimeter 30.59" Hg
Pressure 1036.6 hPa
Elevation 315
METAR KGMU 221753Z VRB04KT 10SM CLR 04/M15 A3059 RMK AO2 SLP366 T00441150 10044 21044 58021
Observed Flight Rules
Jan-22 @ 17:53 UTC
(an hour ago)
VFR
Wind Visibility
Variable at 4 knots 10 miles
Clouds
  • Clear skies
Temperature Dewpoint
4°C / 39°F -15°C / 5°F
Humidity Altimeter Pressure
24% 30.59" Hg 1036.6 hPa